North Uxbridge, Massachusetts
Current Conditions -  °F | °C
As of 8:35 PM on Tuesday 25 Nov 2014 (Local Time) from KSFZ Reporting Station
Clear Clear  
Wind Chill: 44°   Ceiling: Unl
Heat Index: 46°   Visibility: 10mi
Dew Point: 23°   Wind: 5mph
Humidity: 40%   Direction: 240°WSW
Pressure: 30.05"   Gusts: NA
Location:  42.09°N, 71.64°W
Report Text: KSFZ 260135Z 24004KT 10SM CLR 08/M05 A3005 RMK AO1
Loading
Personal Weather Stations






























Interactive Weather Map New forecast layout! Learn more

10-Day Weather Forecast

Advertisements
Track Severe Weather on mobile